sensor_id;sensor_type;location;lat;lon;timestamp;temperature;humidity
44111;DHT22;29774;52.664;5.074;2022-07-29T00:00:42;17.80;67.10
44111;DHT22;29774;52.664;5.074;2022-07-29T00:03:10;17.30;69.40
44111;DHT22;29774;52.664;5.074;2022-07-29T00:05:38;17.40;68.50
44111;DHT22;29774;52.664;5.074;2022-07-29T00:08:04;19.10;62.80
44111;DHT22;29774;52.664;5.074;2022-07-29T00:10:29;17.50;68.10
44111;DHT22;29774;52.664;5.074;2022-07-29T00:12:55;17.10;70.20
44111;DHT22;29774;52.664;5.074;2022-07-29T00:15:21;17.70;67.40
44111;DHT22;29774;52.664;5.074;2022-07-29T00:17:46;18.10;66.00
44111;DHT22;29774;52.664;5.074;2022-07-29T00:20:12;17.70;67.40
44111;DHT22;29774;52.664;5.074;2022-07-29T00:22:38;17.90;67.00
44111;DHT22;29774;52.664;5.074;2022-07-29T00:25:04;17.70;67.30
44111;DHT22;29774;52.664;5.074;2022-07-29T00:27:30;18.40;64.90
44111;DHT22;29774;52.664;5.074;2022-07-29T00:29:56;18.90;62.80
44111;DHT22;29774;52.664;5.074;2022-07-29T00:32:21;19.30;61.20
44111;DHT22;29774;52.664;5.074;2022-07-29T00:34:47;18.50;64.40
44111;DHT22;29774;52.664;5.074;2022-07-29T00:37:31;18.00;65.70
44111;DHT22;29774;52.664;5.074;2022-07-29T00:39:57;19.10;62.40
44111;DHT22;29774;52.664;5.074;2022-07-29T00:42:22;19.20;61.60
44111;DHT22;29774;52.664;5.074;2022-07-29T00:44:48;19.60;60.30
44111;DHT22;29774;52.664;5.074;2022-07-29T00:47:13;19.40;61.20
44111;DHT22;29774;52.664;5.074;2022-07-29T00:49:42;19.50;60.40
44111;DHT22;29774;52.664;5.074;2022-07-29T00:52:09;19.90;59.00
44111;DHT22;29774;52.664;5.074;2022-07-29T00:54:36;19.70;59.40
44111;DHT22;29774;52.664;5.074;2022-07-29T00:57:03;19.70;59.80
44111;DHT22;29774;52.664;5.074;2022-07-29T00:59:28;18.50;64.00
44111;DHT22;29774;52.664;5.074;2022-07-29T01:01:54;18.90;62.80
44111;DHT22;29774;52.664;5.074;2022-07-29T01:04:21;19.20;61.70
44111;DHT22;29774;52.664;5.074;2022-07-29T01:06:48;18.90;62.50
44111;DHT22;29774;52.664;5.074;2022-07-29T01:09:15;18.80;62.50
44111;DHT22;29774;52.664;5.074;2022-07-29T01:11:42;20.00;58.50
44111;DHT22;29774;52.664;5.074;2022-07-29T01:14:08;19.70;59.60
44111;DHT22;29774;52.664;5.074;2022-07-29T01:16:51;20.40;57.00
44111;DHT22;29774;52.664;5.074;2022-07-29T01:19:43;20.00;58.90
44111;DHT22;29774;52.664;5.074;2022-07-29T01:22:58;17.70;66.50
44111;DHT22;29774;52.664;5.074;2022-07-29T01:26:04;18.70;63.10
44111;DHT22;29774;52.664;5.074;2022-07-29T01:28:44;18.60;63.80
44111;DHT22;29774;52.664;5.074;2022-07-29T01:31:16;18.20;64.80
44111;DHT22;29774;52.664;5.074;2022-07-29T01:33:46;18.80;62.90
44111;DHT22;29774;52.664;5.074;2022-07-29T01:36:22;19.50;60.40
44111;DHT22;29774;52.664;5.074;2022-07-29T01:38:57;19.60;60.00
44111;DHT22;29774;52.664;5.074;2022-07-29T01:41:26;18.80;62.30
44111;DHT22;29774;52.664;5.074;2022-07-29T01:44:02;18.50;63.60
44111;DHT22;29774;52.664;5.074;2022-07-29T01:46:38;18.70;63.10
44111;DHT22;29774;52.664;5.074;2022-07-29T01:49:11;19.50;60.00
44111;DHT22;29774;52.664;5.074;2022-07-29T01:51:46;18.50;63.10
44111;DHT22;29774;52.664;5.074;2022-07-29T01:54:30;17.80;66.00
44111;DHT22;29774;52.664;5.074;2022-07-29T01:56:58;18.50;63.40
44111;DHT22;29774;52.664;5.074;2022-07-29T01:59:25;19.00;61.80
44111;DHT22;29774;52.664;5.074;2022-07-29T02:01:54;19.10;61.80
44111;DHT22;29774;52.664;5.074;2022-07-29T02:04:20;18.80;62.30
44111;DHT22;29774;52.664;5.074;2022-07-29T02:06:49;19.10;61.60
44111;DHT22;29774;52.664;5.074;2022-07-29T02:09:15;18.70;63.10
44111;DHT22;29774;52.664;5.074;2022-07-29T02:11:49;18.80;62.30
44111;DHT22;29774;52.664;5.074;2022-07-29T02:14:18;18.70;62.50
44111;DHT22;29774;52.664;5.074;2022-07-29T02:16:44;18.40;63.80
44111;DHT22;29774;52.664;5.074;2022-07-29T02:19:11;18.70;62.00
44111;DHT22;29774;52.664;5.074;2022-07-29T02:21:38;19.20;61.00
44111;DHT22;29774;52.664;5.074;2022-07-29T02:24:06;19.30;60.50
44111;DHT22;29774;52.664;5.074;2022-07-29T02:26:33;18.90;62.10
44111;DHT22;29774;52.664;5.074;2022-07-29T02:29:00;18.40;63.40
44111;DHT22;29774;52.664;5.074;2022-07-29T02:31:30;18.70;62.20
44111;DHT22;29774;52.664;5.074;2022-07-29T02:33:58;19.70;59.00
44111;DHT22;29774;52.664;5.074;2022-07-29T02:36:24;19.20;60.10
44111;DHT22;29774;52.664;5.074;2022-07-29T02:38:51;19.80;58.50
44111;DHT22;29774;52.664;5.074;2022-07-29T02:41:38;19.20;60.20
44111;DHT22;29774;52.664;5.074;2022-07-29T02:44:10;19.10;61.00
44111;DHT22;29774;52.664;5.074;2022-07-29T02:46:38;18.70;62.30
44111;DHT22;29774;52.664;5.074;2022-07-29T02:49:48;18.40;63.70
44111;DHT22;29774;52.664;5.074;2022-07-29T02:52:22;17.80;65.80
44111;DHT22;29774;52.664;5.074;2022-07-29T02:55:30;17.90;65.50
44111;DHT22;29774;52.664;5.074;2022-07-29T02:58:05;18.70;62.90
44111;DHT22;29774;52.664;5.074;2022-07-29T03:00:36;19.30;61.10
44111;DHT22;29774;52.664;5.074;2022-07-29T03:03:05;19.10;61.70
44111;DHT22;29774;52.664;5.074;2022-07-29T03:05:32;18.20;65.00
44111;DHT22;29774;52.664;5.074;2022-07-29T03:08:02;19.00;62.20
44111;DHT22;29774;52.664;5.074;2022-07-29T03:10:28;19.00;62.10
44111;DHT22;29774;52.664;5.074;2022-07-29T03:12:55;18.70;62.90
44111;DHT22;29774;52.664;5.074;2022-07-29T03:15:21;18.80;62.80
44111;DHT22;29774;52.664;5.074;2022-07-29T03:17:48;18.00;65.40
44111;DHT22;29774;52.664;5.074;2022-07-29T03:20:14;18.70;62.80
44111;DHT22;29774;52.664;5.074;2022-07-29T03:22:41;19.50;60.40
44111;DHT22;29774;52.664;5.074;2022-07-29T03:25:10;20.00;58.50
44111;DHT22;29774;52.664;5.074;2022-07-29T03:27:35;20.00;58.50
44111;DHT22;29774;52.664;5.074;2022-07-29T03:30:01;20.20;57.60
44111;DHT22;29774;52.664;5.074;2022-07-29T03:32:26;19.50;59.80
44111;DHT22;29774;52.664;5.074;2022-07-29T03:34:52;19.50;59.70
44111;DHT22;29774;52.664;5.074;2022-07-29T03:37:18;18.80;62.20
44111;DHT22;29774;52.664;5.074;2022-07-29T03:39:44;18.70;62.90
44111;DHT22;29774;52.664;5.074;2022-07-29T03:42:13;18.50;63.90
44111;DHT22;29774;52.664;5.074;2022-07-29T03:44:41;18.90;62.20
44111;DHT22;29774;52.664;5.074;2022-07-29T03:47:09;18.20;64.50
44111;DHT22;29774;52.664;5.074;2022-07-29T03:49:37;17.90;65.50
44111;DHT22;29774;52.664;5.074;2022-07-29T03:52:05;18.60;63.50
44111;DHT22;29774;52.664;5.074;2022-07-29T03:54:31;18.20;64.50
44111;DHT22;29774;52.664;5.074;2022-07-29T03:56:59;18.80;62.40
44111;DHT22;29774;52.664;5.074;2022-07-29T03:59:27;18.70;62.80
44111;DHT22;29774;52.664;5.074;2022-07-29T04:01:52;19.10;61.30
44111;DHT22;29774;52.664;5.074;2022-07-29T04:04:19;18.70;62.80
44111;DHT22;29774;52.664;5.074;2022-07-29T04:06:45;18.80;62.30
44111;DHT22;29774;52.664;5.074;2022-07-29T04:09:12;19.40;60.30
44111;DHT22;29774;52.664;5.074;2022-07-29T04:11:41;18.50;63.50
44111;DHT22;29774;52.664;5.074;2022-07-29T04:14:07;18.40;63.70
44111;DHT22;29774;52.664;5.074;2022-07-29T04:16:32;18.60;63.50
44111;DHT22;29774;52.664;5.074;2022-07-29T04:18:58;18.90;62.40
44111;DHT22;29774;52.664;5.074;2022-07-29T04:21:24;18.80;62.50
44111;DHT22;29774;52.664;5.074;2022-07-29T04:23:50;19.90;58.90
44111;DHT22;29774;52.664;5.074;2022-07-29T04:26:19;19.00;61.60
44111;DHT22;29774;52.664;5.074;2022-07-29T04:28:45;19.50;60.20
44111;DHT22;29774;52.664;5.074;2022-07-29T04:31:12;19.10;61.20
44111;DHT22;29774;52.664;5.074;2022-07-29T04:33:39;19.30;60.60
44111;DHT22;29774;52.664;5.074;2022-07-29T04:36:05;19.70;59.10
44111;DHT22;29774;52.664;5.074;2022-07-29T04:38:30;19.90;58.70
44111;DHT22;29774;52.664;5.074;2022-07-29T04:40:56;19.50;59.90
44111;DHT22;29774;52.664;5.074;2022-07-29T04:43:22;19.00;62.10
44111;DHT22;29774;52.664;5.074;2022-07-29T04:45:47;18.40;64.10
44111;DHT22;29774;52.664;5.074;2022-07-29T04:48:13;18.70;62.80
44111;DHT22;29774;52.664;5.074;2022-07-29T04:50:39;18.70;63.20
44111;DHT22;29774;52.664;5.074;2022-07-29T04:53:05;18.90;62.20
44111;DHT22;29774;52.664;5.074;2022-07-29T04:55:31;18.50;63.60
44111;DHT22;29774;52.664;5.074;2022-07-29T04:57:56;19.20;61.30
44111;DHT22;29774;52.664;5.074;2022-07-29T05:00:22;19.20;61.30
44111;DHT22;29774;52.664;5.074;2022-07-29T05:02:49;19.80;59.00
44111;DHT22;29774;52.664;5.074;2022-07-29T05:05:14;19.40;60.40
44111;DHT22;29774;52.664;5.074;2022-07-29T05:07:40;19.70;59.20
44111;DHT22;29774;52.664;5.074;2022-07-29T05:10:06;19.60;59.90
44111;DHT22;29774;52.664;5.074;2022-07-29T05:12:31;20.00;58.20
44111;DHT22;29774;52.664;5.074;2022-07-29T05:14:57;19.50;60.00
44111;DHT22;29774;52.664;5.074;2022-07-29T05:17:23;19.30;60.30
44111;DHT22;29774;52.664;5.074;2022-07-29T05:19:48;18.70;62.50
44111;DHT22;29774;52.664;5.074;2022-07-29T05:22:17;19.40;60.30
44111;DHT22;29774;52.664;5.074;2022-07-29T05:24:43;18.60;63.40
44111;DHT22;29774;52.664;5.074;2022-07-29T05:27:08;19.70;59.10
44111;DHT22;29774;52.664;5.074;2022-07-29T05:29:34;19.70;59.40
44111;DHT22;29774;52.664;5.074;2022-07-29T05:32:00;19.00;61.60
44111;DHT22;29774;52.664;5.074;2022-07-29T05:34:26;19.50;60.30
44111;DHT22;29774;52.664;5.074;2022-07-29T05:36:51;19.20;61.40
44111;DHT22;29774;52.664;5.074;2022-07-29T05:39:17;19.40;60.30
44111;DHT22;29774;52.664;5.074;2022-07-29T05:41:42;19.00;61.60
44111;DHT22;29774;52.664;5.074;2022-07-29T05:44:08;18.70;62.80
44111;DHT22;29774;52.664;5.074;2022-07-29T05:46:33;19.00;61.40
44111;DHT22;29774;52.664;5.074;2022-07-29T05:48:59;19.30;60.20
44111;DHT22;29774;52.664;5.074;2022-07-29T05:51:25;19.20;60.70
44111;DHT22;29774;52.664;5.074;2022-07-29T05:53:50;19.80;58.40
44111;DHT22;29774;52.664;5.074;2022-07-29T05:56:16;18.90;62.40
44111;DHT22;29774;52.664;5.074;2022-07-29T05:58:41;19.10;61.80
44111;DHT22;29774;52.664;5.074;2022-07-29T06:01:07;18.70;62.50
44111;DHT22;29774;52.664;5.074;2022-07-29T06:03:32;18.90;61.50
44111;DHT22;29774;52.664;5.074;2022-07-29T06:05:58;18.50;63.70
44111;DHT22;29774;52.664;5.074;2022-07-29T06:08:23;19.00;62.20
44111;DHT22;29774;52.664;5.074;2022-07-29T06:10:49;18.60;63.30
44111;DHT22;29774;52.664;5.074;2022-07-29T06:13:14;18.10;65.60
44111;DHT22;29774;52.664;5.074;2022-07-29T06:15:41;17.70;67.00
44111;DHT22;29774;52.664;5.074;2022-07-29T06:18:07;18.30;64.50
44111;DHT22;29774;52.664;5.074;2022-07-29T06:20:34;19.20;61.80
44111;DHT22;29774;52.664;5.074;2022-07-29T06:23:00;18.90;62.50
44111;DHT22;29774;52.664;5.074;2022-07-29T06:25:27;19.00;62.60
44111;DHT22;29774;52.664;5.074;2022-07-29T06:27:56;18.70;62.50
44111;DHT22;29774;52.664;5.074;2022-07-29T06:30:22;19.50;60.70
44111;DHT22;29774;52.664;5.074;2022-07-29T06:32:47;18.90;61.90
44111;DHT22;29774;52.664;5.074;2022-07-29T06:35:13;18.90;61.90
44111;DHT22;29774;52.664;5.074;2022-07-29T06:37:39;19.20;61.20
44111;DHT22;29774;52.664;5.074;2022-07-29T06:40:04;18.80;62.20
44111;DHT22;29774;52.664;5.074;2022-07-29T06:42:49;19.30;61.30
44111;DHT22;29774;52.664;5.074;2022-07-29T06:45:14;19.50;60.60
44111;DHT22;29774;52.664;5.074;2022-07-29T06:47:41;19.30;61.20
44111;DHT22;29774;52.664;5.074;2022-07-29T06:50:07;19.50;60.50
44111;DHT22;29774;52.664;5.074;2022-07-29T06:52:36;18.50;64.40
44111;DHT22;29774;52.664;5.074;2022-07-29T06:55:02;19.00;62.30
44111;DHT22;29774;52.664;5.074;2022-07-29T06:57:28;19.20;61.00
44111;DHT22;29774;52.664;5.074;2022-07-29T06:59:55;19.50;59.70
44111;DHT22;29774;52.664;5.074;2022-07-29T07:02:21;19.20;61.60
44111;DHT22;29774;52.664;5.074;2022-07-29T07:04:46;19.90;58.40
44111;DHT22;29774;52.664;5.074;2022-07-29T07:07:12;20.20;57.30
44111;DHT22;29774;52.664;5.074;2022-07-29T07:09:38;20.10;58.40
44111;DHT22;29774;52.664;5.074;2022-07-29T07:12:03;20.20;57.40
44111;DHT22;29774;52.664;5.074;2022-07-29T07:14:29;20.20;57.30
44111;DHT22;29774;52.664;5.074;2022-07-29T07:16:55;19.70;59.10
44111;DHT22;29774;52.664;5.074;2022-07-29T07:19:20;19.10;62.30
44111;DHT22;29774;52.664;5.074;2022-07-29T07:21:46;18.90;62.30
44111;DHT22;29774;52.664;5.074;2022-07-29T07:24:11;18.90;62.50
44111;DHT22;29774;52.664;5.074;2022-07-29T07:26:37;20.00;58.00
44111;DHT22;29774;52.664;5.074;2022-07-29T07:29:05;19.70;59.30
44111;DHT22;29774;52.664;5.074;2022-07-29T07:31:31;19.70;58.80
44111;DHT22;29774;52.664;5.074;2022-07-29T07:33:57;19.50;60.70
44111;DHT22;29774;52.664;5.074;2022-07-29T07:36:23;19.40;61.80
44111;DHT22;29774;52.664;5.074;2022-07-29T07:38:49;20.30;57.10
44111;DHT22;29774;52.664;5.074;2022-07-29T07:41:15;20.10;58.00
44111;DHT22;29774;52.664;5.074;2022-07-29T07:43:41;20.20;58.00
44111;DHT22;29774;52.664;5.074;2022-07-29T07:46:06;20.50;57.10
44111;DHT22;29774;52.664;5.074;2022-07-29T07:48:32;20.70;57.00
44111;DHT22;29774;52.664;5.074;2022-07-29T07:51:00;20.50;57.40
44111;DHT22;29774;52.664;5.074;2022-07-29T07:53:26;20.80;55.60
44111;DHT22;29774;52.664;5.074;2022-07-29T07:55:51;20.50;56.60
44111;DHT22;29774;52.664;5.074;2022-07-29T07:58:17;20.70;58.00
44111;DHT22;29774;52.664;5.074;2022-07-29T08:00:42;20.90;56.30
44111;DHT22;29774;52.664;5.074;2022-07-29T08:03:08;20.70;57.60
44111;DHT22;29774;52.664;5.074;2022-07-29T08:05:33;20.70;57.10
44111;DHT22;29774;52.664;5.074;2022-07-29T08:07:59;20.80;56.10
44111;DHT22;29774;52.664;5.074;2022-07-29T08:10:25;21.20;55.70
44111;DHT22;29774;52.664;5.074;2022-07-29T08:13:09;21.20;55.50
44111;DHT22;29774;52.664;5.074;2022-07-29T08:15:39;21.30;56.10
44111;DHT22;29774;52.664;5.074;2022-07-29T08:18:05;21.50;56.00
44111;DHT22;29774;52.664;5.074;2022-07-29T08:20:30;21.60;55.30
44111;DHT22;29774;52.664;5.074;2022-07-29T08:22:58;21.70;55.00
44111;DHT22;29774;52.664;5.074;2022-07-29T08:25:24;21.80;53.40
44111;DHT22;29774;52.664;5.074;2022-07-29T08:27:50;21.60;55.90
44111;DHT22;29774;52.664;5.074;2022-07-29T08:30:15;21.60;55.50
44111;DHT22;29774;52.664;5.074;2022-07-29T08:32:41;21.40;55.30
44111;DHT22;29774;52.664;5.074;2022-07-29T08:35:07;21.50;55.10
44111;DHT22;29774;52.664;5.074;2022-07-29T08:37:33;21.70;54.60
44111;DHT22;29774;52.664;5.074;2022-07-29T08:39:59;21.70;54.40
44111;DHT22;29774;52.664;5.074;2022-07-29T08:42:24;22.00;54.50
44111;DHT22;29774;52.664;5.074;2022-07-29T08:44:50;22.70;51.70
44111;DHT22;29774;52.664;5.074;2022-07-29T08:47:16;22.30;52.30
44111;DHT22;29774;52.664;5.074;2022-07-29T08:49:42;22.10;52.40
44111;DHT22;29774;52.664;5.074;2022-07-29T08:52:10;22.10;53.70
44111;DHT22;29774;52.664;5.074;2022-07-29T08:54:38;22.50;53.10
44111;DHT22;29774;52.664;5.074;2022-07-29T08:57:04;22.50;52.90
44111;DHT22;29774;52.664;5.074;2022-07-29T08:59:30;22.40;51.50
44111;DHT22;29774;52.664;5.074;2022-07-29T09:01:57;22.20;53.80
44111;DHT22;29774;52.664;5.074;2022-07-29T09:04:29;23.10;52.00
44111;DHT22;29774;52.664;5.074;2022-07-29T09:06:57;22.90;51.60
44111;DHT22;29774;52.664;5.074;2022-07-29T09:09:26;22.80;51.50
44111;DHT22;29774;52.664;5.074;2022-07-29T09:11:52;22.40;51.90
44111;DHT22;29774;52.664;5.074;2022-07-29T09:14:18;22.30;51.80
44111;DHT22;29774;52.664;5.074;2022-07-29T09:19:27;23.40;50.80
44111;DHT22;29774;52.664;5.074;2022-07-29T09:21:54;23.30;49.20
44111;DHT22;29774;52.664;5.074;2022-07-29T09:24:46;22.50;51.10
44111;DHT22;29774;52.664;5.074;2022-07-29T09:29:45;22.70;52.30
44111;DHT22;29774;52.664;5.074;2022-07-29T09:32:11;22.60;50.70
44111;DHT22;29774;52.664;5.074;2022-07-29T09:34:37;23.00;49.80
44111;DHT22;29774;52.664;5.074;2022-07-29T09:37:03;23.00;51.60
44111;DHT22;29774;52.664;5.074;2022-07-29T09:39:39;23.10;51.10
44111;DHT22;29774;52.664;5.074;2022-07-29T09:42:11;22.40;51.50
44111;DHT22;29774;52.664;5.074;2022-07-29T09:44:43;22.80;51.10
44111;DHT22;29774;52.664;5.074;2022-07-29T09:47:09;22.60;51.40
44111;DHT22;29774;52.664;5.074;2022-07-29T09:49:50;22.30;52.00
44111;DHT22;29774;52.664;5.074;2022-07-29T09:52:16;22.20;52.30
44111;DHT22;29774;52.664;5.074;2022-07-29T09:54:42;22.80;51.50
44111;DHT22;29774;52.664;5.074;2022-07-29T09:57:09;22.80;50.20
44111;DHT22;29774;52.664;5.074;2022-07-29T09:59:56;22.50;51.20
44111;DHT22;29774;52.664;5.074;2022-07-29T10:02:22;22.30;51.90
44111;DHT22;29774;52.664;5.074;2022-07-29T10:04:48;22.90;50.40
44111;DHT22;29774;52.664;5.074;2022-07-29T10:07:13;23.00;49.90
44111;DHT22;29774;52.664;5.074;2022-07-29T10:09:53;22.70;50.80
44111;DHT22;29774;52.664;5.074;2022-07-29T10:12:19;22.70;51.10
44111;DHT22;29774;52.664;5.074;2022-07-29T10:14:45;22.80;51.40
44111;DHT22;29774;52.664;5.074;2022-07-29T10:17:11;22.50;51.20
44111;DHT22;29774;52.664;5.074;2022-07-29T10:19:38;22.30;52.10
44111;DHT22;29774;52.664;5.074;2022-07-29T10:22:08;22.90;51.10
44111;DHT22;29774;52.664;5.074;2022-07-29T10:24:35;23.00;51.20
44111;DHT22;29774;52.664;5.074;2022-07-29T10:27:02;23.00;50.80
44111;DHT22;29774;52.664;5.074;2022-07-29T10:29:29;23.30;48.80
44111;DHT22;29774;52.664;5.074;2022-07-29T10:41:12;22.70;50.90
44111;DHT22;29774;52.664;5.074;2022-07-29T10:46:28;22.80;49.80
44111;DHT22;29774;52.664;5.074;2022-07-29T10:49:16;23.00;49.70
44111;DHT22;29774;52.664;5.074;2022-07-29T10:51:57;22.60;51.20
44111;DHT22;29774;52.664;5.074;2022-07-29T10:54:39;22.70;50.80
44111;DHT22;29774;52.664;5.074;2022-07-29T10:57:27;23.00;50.10
44111;DHT22;29774;52.664;5.074;2022-07-29T11:07:31;23.20;49.00
44111;DHT22;29774;52.664;5.074;2022-07-29T11:15:10;23.90;48.20
44111;DHT22;29774;52.664;5.074;2022-07-29T11:20:42;24.60;46.20
44111;DHT22;29774;52.664;5.074;2022-07-29T11:23:31;23.50;49.00
44111;DHT22;29774;52.664;5.074;2022-07-29T11:26:17;24.20;46.80
44111;DHT22;29774;52.664;5.074;2022-07-29T11:29:20;24.00;48.10
44111;DHT22;29774;52.664;5.074;2022-07-29T11:31:50;23.70;49.00
44111;DHT22;29774;52.664;5.074;2022-07-29T11:39:46;23.60;49.70
44111;DHT22;29774;52.664;5.074;2022-07-29T11:47:31;23.70;48.80
44111;DHT22;29774;52.664;5.074;2022-07-29T11:49:59;23.70;49.50
44111;DHT22;29774;52.664;5.074;2022-07-29T11:55:03;24.00;48.50
44111;DHT22;29774;52.664;5.074;2022-07-29T11:57:29;24.50;48.60
44111;DHT22;29774;52.664;5.074;2022-07-29T11:59:55;23.90;49.10
44111;DHT22;29774;52.664;5.074;2022-07-29T12:02:23;23.60;50.00
44111;DHT22;29774;52.664;5.074;2022-07-29T12:04:53;23.40;50.50
44111;DHT22;29774;52.664;5.074;2022-07-29T12:07:28;23.70;49.40
44111;DHT22;29774;52.664;5.074;2022-07-29T12:09:54;24.10;48.40
44111;DHT22;29774;52.664;5.074;2022-07-29T12:12:20;24.30;48.10
44111;DHT22;29774;52.664;5.074;2022-07-29T12:14:46;24.20;48.00
44111;DHT22;29774;52.664;5.074;2022-07-29T12:19:55;23.50;49.60
44111;DHT22;29774;52.664;5.074;2022-07-29T12:22:32;24.00;49.20
44111;DHT22;29774;52.664;5.074;2022-07-29T12:25:03;23.80;49.60
44111;DHT22;29774;52.664;5.074;2022-07-29T12:27:29;23.70;49.80
44111;DHT22;29774;52.664;5.074;2022-07-29T12:30:03;23.80;49.50
44111;DHT22;29774;52.664;5.074;2022-07-29T12:32:37;24.30;48.30
44111;DHT22;29774;52.664;5.074;2022-07-29T12:35:10;23.80;49.50
44111;DHT22;29774;52.664;5.074;2022-07-29T12:37:38;24.00;48.40
44111;DHT22;29774;52.664;5.074;2022-07-29T12:40:05;23.90;49.30
44111;DHT22;29774;52.664;5.074;2022-07-29T12:42:31;24.30;48.10
44111;DHT22;29774;52.664;5.074;2022-07-29T12:44:57;24.10;48.70
44111;DHT22;29774;52.664;5.074;2022-07-29T12:47:23;24.30;48.30
44111;DHT22;29774;52.664;5.074;2022-07-29T12:50:07;24.00;49.20
44111;DHT22;29774;52.664;5.074;2022-07-29T12:52:34;24.50;47.80
44111;DHT22;29774;52.664;5.074;2022-07-29T12:55:00;24.50;46.60
44111;DHT22;29774;52.664;5.074;2022-07-29T12:57:26;24.30;48.20
44111;DHT22;29774;52.664;5.074;2022-07-29T13:00:08;24.20;48.40
44111;DHT22;29774;52.664;5.074;2022-07-29T13:02:36;24.10;47.60
44111;DHT22;29774;52.664;5.074;2022-07-29T13:05:03;24.30;48.00
44111;DHT22;29774;52.664;5.074;2022-07-29T13:07:30;24.70;46.20
44111;DHT22;29774;52.664;5.074;2022-07-29T13:10:13;24.10;49.00
44111;DHT22;29774;52.664;5.074;2022-07-29T13:13:10;24.00;49.40
44111;DHT22;29774;52.664;5.074;2022-07-29T13:15:38;24.20;48.50
44111;DHT22;29774;52.664;5.074;2022-07-29T13:18:05;24.90;46.50
44111;DHT22;29774;52.664;5.074;2022-07-29T13:20:31;24.90;46.30
44111;DHT22;29774;52.664;5.074;2022-07-29T13:22:58;24.70;47.20
44111;DHT22;29774;52.664;5.074;2022-07-29T13:25:29;24.80;46.80
44111;DHT22;29774;52.664;5.074;2022-07-29T13:27:56;24.00;49.00
44111;DHT22;29774;52.664;5.074;2022-07-29T13:30:22;23.80;49.60
44111;DHT22;29774;52.664;5.074;2022-07-29T13:32:48;23.80;49.40
44111;DHT22;29774;52.664;5.074;2022-07-29T13:35:15;24.00;49.00
44111;DHT22;29774;52.664;5.074;2022-07-29T13:37:40;23.80;49.50
44111;DHT22;29774;52.664;5.074;2022-07-29T13:40:07;24.20;48.70
44111;DHT22;29774;52.664;5.074;2022-07-29T13:42:35;24.20;48.40
44111;DHT22;29774;52.664;5.074;2022-07-29T13:45:01;24.00;49.20
44111;DHT22;29774;52.664;5.074;2022-07-29T13:47:27;23.80;49.70
44111;DHT22;29774;52.664;5.074;2022-07-29T13:49:54;24.40;48.10
44111;DHT22;29774;52.664;5.074;2022-07-29T13:52:20;24.10;48.90
44111;DHT22;29774;52.664;5.074;2022-07-29T13:54:46;24.00;49.30
44111;DHT22;29774;52.664;5.074;2022-07-29T13:57:12;24.80;47.20
44111;DHT22;29774;52.664;5.074;2022-07-29T13:59:39;23.90;49.60
44111;DHT22;29774;52.664;5.074;2022-07-29T14:02:04;24.20;48.90
44111;DHT22;29774;52.664;5.074;2022-07-29T14:04:31;24.60;49.30
44111;DHT22;29774;52.664;5.074;2022-07-29T14:06:56;25.00;47.60
44111;DHT22;29774;52.664;5.074;2022-07-29T14:09:22;23.90;49.50
44111;DHT22;29774;52.664;5.074;2022-07-29T14:11:48;24.00;50.50
44111;DHT22;29774;52.664;5.074;2022-07-29T14:14:15;23.90;49.60
44111;DHT22;29774;52.664;5.074;2022-07-29T14:16:41;23.80;50.30
44111;DHT22;29774;52.664;5.074;2022-07-29T14:19:06;23.70;50.30
44111;DHT22;29774;52.664;5.074;2022-07-29T14:21:32;23.70;50.60
44111;DHT22;29774;52.664;5.074;2022-07-29T14:23:58;23.60;50.80
44111;DHT22;29774;52.664;5.074;2022-07-29T14:26:23;23.60;51.20
44111;DHT22;29774;52.664;5.074;2022-07-29T14:28:49;23.60;51.10
44111;DHT22;29774;52.664;5.074;2022-07-29T14:31:15;23.60;51.80
44111;DHT22;29774;52.664;5.074;2022-07-29T14:33:41;23.50;51.90
44111;DHT22;29774;52.664;5.074;2022-07-29T14:36:07;23.40;51.80
44111;DHT22;29774;52.664;5.074;2022-07-29T14:38:35;23.50;52.50
44111;DHT22;29774;52.664;5.074;2022-07-29T14:41:01;23.40;52.50
44111;DHT22;29774;52.664;5.074;2022-07-29T14:43:26;23.40;52.00
44111;DHT22;29774;52.664;5.074;2022-07-29T14:45:52;23.50;51.50
44111;DHT22;29774;52.664;5.074;2022-07-29T14:48:17;23.60;53.10
44111;DHT22;29774;52.664;5.074;2022-07-29T14:50:43;23.50;52.10
44111;DHT22;29774;52.664;5.074;2022-07-29T14:53:09;23.30;52.00
44111;DHT22;29774;52.664;5.074;2022-07-29T14:55:35;23.30;52.00
44111;DHT22;29774;52.664;5.074;2022-07-29T14:58:00;23.50;51.60
44111;DHT22;29774;52.664;5.074;2022-07-29T15:00:26;23.40;52.40
44111;DHT22;29774;52.664;5.074;2022-07-29T15:02:52;23.40;51.70
44111;DHT22;29774;52.664;5.074;2022-07-29T15:05:17;23.40;51.70
44111;DHT22;29774;52.664;5.074;2022-07-29T15:07:43;23.30;51.70
44111;DHT22;29774;52.664;5.074;2022-07-29T15:10:09;23.40;51.70
44111;DHT22;29774;52.664;5.074;2022-07-29T15:12:35;23.30;52.60
44111;DHT22;29774;52.664;5.074;2022-07-29T15:15:00;23.00;53.00
44111;DHT22;29774;52.664;5.074;2022-07-29T15:17:26;23.30;52.20
44111;DHT22;29774;52.664;5.074;2022-07-29T15:19:51;23.40;51.90
44111;DHT22;29774;52.664;5.074;2022-07-29T15:22:17;23.30;52.20
44111;DHT22;29774;52.664;5.074;2022-07-29T15:24:43;23.30;52.80
44111;DHT22;29774;52.664;5.074;2022-07-29T15:27:10;23.30;52.20
44111;DHT22;29774;52.664;5.074;2022-07-29T15:29:57;23.30;52.10
44111;DHT22;29774;52.664;5.074;2022-07-29T15:32:23;23.20;53.30
44111;DHT22;29774;52.664;5.074;2022-07-29T15:34:48;23.00;54.60
44111;DHT22;29774;52.664;5.074;2022-07-29T15:37:14;22.80;54.90
44111;DHT22;29774;52.664;5.074;2022-07-29T15:39:40;23.10;53.20
44111;DHT22;29774;52.664;5.074;2022-07-29T15:42:05;23.30;52.50
44111;DHT22;29774;52.664;5.074;2022-07-29T15:44:31;23.10;53.20
44111;DHT22;29774;52.664;5.074;2022-07-29T15:46:57;23.40;52.60
44111;DHT22;29774;52.664;5.074;2022-07-29T15:49:31;23.40;52.60
44111;DHT22;29774;52.664;5.074;2022-07-29T15:52:00;23.30;53.90
44111;DHT22;29774;52.664;5.074;2022-07-29T15:54:28;23.00;53.60
44111;DHT22;29774;52.664;5.074;2022-07-29T15:56:54;23.40;52.60
44111;DHT22;29774;52.664;5.074;2022-07-29T15:59:20;23.20;54.30
44111;DHT22;29774;52.664;5.074;2022-07-29T16:01:46;23.00;53.70
44111;DHT22;29774;52.664;5.074;2022-07-29T16:04:12;23.20;53.40
44111;DHT22;29774;52.664;5.074;2022-07-29T16:06:38;23.10;53.90
44111;DHT22;29774;52.664;5.074;2022-07-29T16:09:03;23.10;53.50
44111;DHT22;29774;52.664;5.074;2022-07-29T16:11:29;23.20;53.30
44111;DHT22;29774;52.664;5.074;2022-07-29T16:13:55;23.10;55.00
44111;DHT22;29774;52.664;5.074;2022-07-29T16:16:20;22.50;56.60
44111;DHT22;29774;52.664;5.074;2022-07-29T16:18:46;22.80;54.60
44111;DHT22;29774;52.664;5.074;2022-07-29T16:21:12;23.30;53.40
44111;DHT22;29774;52.664;5.074;2022-07-29T16:23:39;23.00;55.90
44111;DHT22;29774;52.664;5.074;2022-07-29T16:26:04;22.80;55.70